sensor_id;sensor_type;location;lat;lon;timestamp;P1;durP1;ratioP1;P2;durP2;ratioP2
23678;SDS011;12016;51.668;6.874;2022-08-18T00:02:48;30.17;;;27.13;;
23678;SDS011;12016;51.668;6.874;2022-08-18T00:08:50;31.33;;;28.15;;
23678;SDS011;12016;51.668;6.874;2022-08-18T00:14:52;32.90;;;29.55;;
23678;SDS011;12016;51.668;6.874;2022-08-18T00:20:55;32.90;;;29.48;;
23678;SDS011;12016;51.668;6.874;2022-08-18T00:26:57;31.17;;;28.10;;
23678;SDS011;12016;51.668;6.874;2022-08-18T00:32:59;32.75;;;29.48;;
23678;SDS011;12016;51.668;6.874;2022-08-18T00:39:02;31.17;;;28.02;;
23678;SDS011;12016;51.668;6.874;2022-08-18T00:45:04;31.17;;;27.98;;
23678;SDS011;12016;51.668;6.874;2022-08-18T00:51:12;31.02;;;27.88;;
23678;SDS011;12016;51.668;6.874;2022-08-18T00:57:17;34.27;;;30.67;;
23678;SDS011;12016;51.668;6.874;2022-08-18T01:03:22;35.47;;;31.83;;
23678;SDS011;12016;51.668;6.874;2022-08-18T01:09:25;35.45;;;31.58;;
23678;SDS011;12016;51.668;6.874;2022-08-18T01:15:27;42.42;;;37.75;;
23678;SDS011;12016;51.668;6.874;2022-08-18T01:21:30;40.25;;;35.60;;
23678;SDS011;12016;51.668;6.874;2022-08-18T01:27:51;41.17;;;35.38;;
23678;SDS011;12016;51.668;6.874;2022-08-18T01:33:54;48.08;;;38.65;;
23678;SDS011;12016;51.668;6.874;2022-08-18T01:39:57;54.00;;;41.03;;
23678;SDS011;12016;51.668;6.874;2022-08-18T01:45:59;50.85;;;39.70;;
23678;SDS011;12016;51.668;6.874;2022-08-18T01:52:02;55.17;;;41.80;;
23678;SDS011;12016;51.668;6.874;2022-08-18T01:58:07;48.80;;;38.75;;
23678;SDS011;12016;51.668;6.874;2022-08-18T02:04:09;42.80;;;35.95;;
23678;SDS011;12016;51.668;6.874;2022-08-18T02:10:32;49.42;;;40.10;;
23678;SDS011;12016;51.668;6.874;2022-08-18T02:16:34;43.42;;;36.30;;
23678;SDS011;12016;51.668;6.874;2022-08-18T02:22:37;45.95;;;37.92;;
23678;SDS011;12016;51.668;6.874;2022-08-18T02:28:39;45.92;;;37.35;;
23678;SDS011;12016;51.668;6.874;2022-08-18T02:34:42;47.60;;;39.70;;
23678;SDS011;12016;51.668;6.874;2022-08-18T02:40:44;47.95;;;40.58;;
23678;SDS011;12016;51.668;6.874;2022-08-18T02:46:50;48.72;;;37.83;;
23678;SDS011;12016;51.668;6.874;2022-08-18T02:52:54;48.20;;;38.42;;
23678;SDS011;12016;51.668;6.874;2022-08-18T02:59:00;46.35;;;35.97;;
23678;SDS011;12016;51.668;6.874;2022-08-18T03:05:05;44.78;;;34.65;;
23678;SDS011;12016;51.668;6.874;2022-08-18T03:11:08;39.88;;;33.10;;
23678;SDS011;12016;51.668;6.874;2022-08-18T03:17:10;43.75;;;34.78;;
23678;SDS011;12016;51.668;6.874;2022-08-18T03:23:15;41.80;;;33.38;;
23678;SDS011;12016;51.668;6.874;2022-08-18T03:29:17;36.67;;;29.48;;
23678;SDS011;12016;51.668;6.874;2022-08-18T03:35:20;42.92;;;33.22;;
23678;SDS011;12016;51.668;6.874;2022-08-18T03:41:25;48.10;;;35.88;;
23678;SDS011;12016;51.668;6.874;2022-08-18T03:47:29;43.10;;;33.40;;
23678;SDS011;12016;51.668;6.874;2022-08-18T03:53:33;41.70;;;32.10;;
23678;SDS011;12016;51.668;6.874;2022-08-18T03:59:36;42.08;;;32.13;;
23678;SDS011;12016;51.668;6.874;2022-08-18T04:05:38;46.22;;;36.08;;
23678;SDS011;12016;51.668;6.874;2022-08-18T04:11:42;45.28;;;35.80;;
23678;SDS011;12016;51.668;6.874;2022-08-18T04:17:45;44.58;;;35.17;;
23678;SDS011;12016;51.668;6.874;2022-08-18T04:23:47;49.38;;;38.35;;
23678;SDS011;12016;51.668;6.874;2022-08-18T04:29:49;39.85;;;32.65;;
23678;SDS011;12016;51.668;6.874;2022-08-18T04:35:52;44.17;;;35.70;;
23678;SDS011;12016;51.668;6.874;2022-08-18T04:41:55;45.40;;;35.97;;
23678;SDS011;12016;51.668;6.874;2022-08-18T04:47:57;52.03;;;38.28;;
23678;SDS011;12016;51.668;6.874;2022-08-18T04:53:59;45.88;;;36.83;;
23678;SDS011;12016;51.668;6.874;2022-08-18T05:00:02;54.92;;;40.58;;
23678;SDS011;12016;51.668;6.874;2022-08-18T05:06:08;53.83;;;37.90;;
23678;SDS011;12016;51.668;6.874;2022-08-18T05:12:11;55.78;;;39.17;;
23678;SDS011;12016;51.668;6.874;2022-08-18T05:18:14;57.35;;;37.88;;
23678;SDS011;12016;51.668;6.874;2022-08-18T05:24:17;63.33;;;39.92;;
23678;SDS011;12016;51.668;6.874;2022-08-18T05:30:20;61.45;;;39.80;;
23678;SDS011;12016;51.668;6.874;2022-08-18T05:42:37;70.35;;;45.72;;
23678;SDS011;12016;51.668;6.874;2022-08-18T05:48:40;72.32;;;45.95;;
23678;SDS011;12016;51.668;6.874;2022-08-18T05:54:51;73.15;;;45.95;;
23678;SDS011;12016;51.668;6.874;2022-08-18T06:01:15;67.57;;;42.03;;
23678;SDS011;12016;51.668;6.874;2022-08-18T06:13:42;60.50;;;39.75;;
23678;SDS011;12016;51.668;6.874;2022-08-18T06:20:00;54.70;;;38.00;;
23678;SDS011;12016;51.668;6.874;2022-08-18T06:26:24;54.13;;;36.70;;
23678;SDS011;12016;51.668;6.874;2022-08-18T06:45:45;57.53;;;39.75;;
23678;SDS011;12016;51.668;6.874;2022-08-18T06:51:52;57.25;;;40.28;;
23678;SDS011;12016;51.668;6.874;2022-08-18T06:57:56;49.58;;;36.28;;
23678;SDS011;12016;51.668;6.874;2022-08-18T07:03:59;51.45;;;35.35;;
23678;SDS011;12016;51.668;6.874;2022-08-18T07:10:04;32.88;;;26.30;;
23678;SDS011;12016;51.668;6.874;2022-08-18T07:16:22;23.45;;;19.75;;
23678;SDS011;12016;51.668;6.874;2022-08-18T07:22:54;19.92;;;17.05;;
23678;SDS011;12016;51.668;6.874;2022-08-18T07:29:11;16.45;;;14.75;;
23678;SDS011;12016;51.668;6.874;2022-08-18T07:35:19;15.88;;;13.45;;
23678;SDS011;12016;51.668;6.874;2022-08-18T07:41:33;19.30;;;14.85;;
23678;SDS011;12016;51.668;6.874;2022-08-18T07:47:46;15.63;;;13.38;;
23678;SDS011;12016;51.668;6.874;2022-08-18T07:54:06;14.18;;;12.68;;
23678;SDS011;12016;51.668;6.874;2022-08-18T08:00:47;13.35;;;11.95;;
23678;SDS011;12016;51.668;6.874;2022-08-18T08:07:01;13.32;;;12.02;;
23678;SDS011;12016;51.668;6.874;2022-08-18T08:32:10;11.63;;;10.43;;
23678;SDS011;12016;51.668;6.874;2022-08-18T08:44:53;10.45;;;9.10;;
23678;SDS011;12016;51.668;6.874;2022-08-18T08:57:29;7.55;;;6.78;;
23678;SDS011;12016;51.668;6.874;2022-08-18T09:03:44;7.20;;;6.50;;
23678;SDS011;12016;51.668;6.874;2022-08-18T09:22:48;7.78;;;7.00;;
23678;SDS011;12016;51.668;6.874;2022-08-18T09:28:56;6.72;;;6.03;;
23678;SDS011;12016;51.668;6.874;2022-08-18T09:35:29;7.30;;;6.60;;
23678;SDS011;12016;51.668;6.874;2022-08-18T09:42:00;7.70;;;6.80;;
23678;SDS011;12016;51.668;6.874;2022-08-18T09:54:13;8.25;;;7.22;;
23678;SDS011;12016;51.668;6.874;2022-08-18T10:00:27;7.50;;;6.78;;
23678;SDS011;12016;51.668;6.874;2022-08-18T10:07:20;6.68;;;6.05;;
23678;SDS011;12016;51.668;6.874;2022-08-18T10:13:55;7.70;;;6.88;;
23678;SDS011;12016;51.668;6.874;2022-08-18T10:20:24;10.82;;;7.60;;
23678;SDS011;12016;51.668;6.874;2022-08-18T10:32:42;8.05;;;7.00;;
23678;SDS011;12016;51.668;6.874;2022-08-18T10:38:45;6.50;;;5.90;;
23678;SDS011;12016;51.668;6.874;2022-08-18T10:44:54;7.13;;;5.30;;
23678;SDS011;12016;51.668;6.874;2022-08-18T10:51:26;6.53;;;5.75;;
23678;SDS011;12016;51.668;6.874;2022-08-18T11:11:04;5.88;;;5.28;;
23678;SDS011;12016;51.668;6.874;2022-08-18T11:17:32;6.72;;;5.57;;
23678;SDS011;12016;51.668;6.874;2022-08-18T11:23:35;7.00;;;5.35;;
23678;SDS011;12016;51.668;6.874;2022-08-18T11:29:39;7.72;;;5.80;;
23678;SDS011;12016;51.668;6.874;2022-08-18T11:35:49;5.60;;;4.40;;
23678;SDS011;12016;51.668;6.874;2022-08-18T11:42:00;4.68;;;4.28;;
23678;SDS011;12016;51.668;6.874;2022-08-18T11:54:21;2.95;;;2.75;;
23678;SDS011;12016;51.668;6.874;2022-08-18T12:12:56;2.55;;;2.35;;
23678;SDS011;12016;51.668;6.874;2022-08-18T12:19:00;4.03;;;2.70;;
23678;SDS011;12016;51.668;6.874;2022-08-18T12:25:04;4.60;;;3.00;;
23678;SDS011;12016;51.668;6.874;2022-08-18T12:31:08;4.45;;;3.35;;
23678;SDS011;12016;51.668;6.874;2022-08-18T12:37:11;4.15;;;3.20;;
23678;SDS011;12016;51.668;6.874;2022-08-18T12:43:37;2.90;;;2.63;;
23678;SDS011;12016;51.668;6.874;2022-08-18T12:49:40;4.60;;;2.70;;
23678;SDS011;12016;51.668;6.874;2022-08-18T12:55:43;3.10;;;2.50;;
23678;SDS011;12016;51.668;6.874;2022-08-18T13:01:45;2.63;;;2.42;;
23678;SDS011;12016;51.668;6.874;2022-08-18T13:07:49;2.85;;;2.60;;
23678;SDS011;12016;51.668;6.874;2022-08-18T13:13:52;2.67;;;2.47;;
23678;SDS011;12016;51.668;6.874;2022-08-18T13:19:57;3.00;;;2.78;;
23678;SDS011;12016;51.668;6.874;2022-08-18T13:26:00;3.58;;;3.22;;
23678;SDS011;12016;51.668;6.874;2022-08-18T13:32:03;7.50;;;3.47;;
23678;SDS011;12016;51.668;6.874;2022-08-18T13:38:11;4.05;;;3.65;;
23678;SDS011;12016;51.668;6.874;2022-08-18T13:44:18;3.40;;;3.10;;
23678;SDS011;12016;51.668;6.874;2022-08-18T13:50:21;3.25;;;2.95;;
23678;SDS011;12016;51.668;6.874;2022-08-18T13:56:23;3.65;;;3.10;;
23678;SDS011;12016;51.668;6.874;2022-08-18T14:02:25;3.78;;;3.38;;
23678;SDS011;12016;51.668;6.874;2022-08-18T14:08:28;5.10;;;4.10;;
23678;SDS011;12016;51.668;6.874;2022-08-18T14:14:31;3.50;;;3.20;;
23678;SDS011;12016;51.668;6.874;2022-08-18T14:20:34;3.25;;;2.90;;
23678;SDS011;12016;51.668;6.874;2022-08-18T14:26:55;3.47;;;3.08;;
23678;SDS011;12016;51.668;6.874;2022-08-18T14:32:56;3.05;;;2.75;;
23678;SDS011;12016;51.668;6.874;2022-08-18T14:39:00;3.33;;;3.00;;
23678;SDS011;12016;51.668;6.874;2022-08-18T14:45:04;2.95;;;2.75;;
23678;SDS011;12016;51.668;6.874;2022-08-18T14:51:16;3.10;;;2.20;;
23678;SDS011;12016;51.668;6.874;2022-08-18T14:57:18;9.32;;;2.40;;
23678;SDS011;12016;51.668;6.874;2022-08-18T15:03:24;5.03;;;2.30;;
23678;SDS011;12016;51.668;6.874;2022-08-18T15:09:28;2.10;;;2.00;;
23678;SDS011;12016;51.668;6.874;2022-08-18T15:15:30;3.45;;;2.28;;
23678;SDS011;12016;51.668;6.874;2022-08-18T15:21:33;4.70;;;2.10;;
23678;SDS011;12016;51.668;6.874;2022-08-18T15:27:54;1.77;;;1.67;;
23678;SDS011;12016;51.668;6.874;2022-08-18T15:33:56;2.47;;;1.98;;
23678;SDS011;12016;51.668;6.874;2022-08-18T15:40:07;2.40;;;2.10;;
23678;SDS011;12016;51.668;6.874;2022-08-18T15:46:14;3.03;;;2.30;;
23678;SDS011;12016;51.668;6.874;2022-08-18T15:52:15;2.97;;;2.15;;
23678;SDS011;12016;51.668;6.874;2022-08-18T15:58:18;3.53;;;2.45;;
23678;SDS011;12016;51.668;6.874;2022-08-18T16:04:20;3.38;;;2.20;;
23678;SDS011;12016;51.668;6.874;2022-08-18T16:10:23;2.28;;;2.00;;
23678;SDS011;12016;51.668;6.874;2022-08-18T16:16:26;2.85;;;2.55;;
23678;SDS011;12016;51.668;6.874;2022-08-18T16:22:28;3.97;;;2.25;;
23678;SDS011;12016;51.668;6.874;2022-08-18T16:28:34;5.32;;;2.33;;
23678;SDS011;12016;51.668;6.874;2022-08-18T16:34:36;3.90;;;2.60;;
23678;SDS011;12016;51.668;6.874;2022-08-18T16:40:38;3.05;;;2.50;;
23678;SDS011;12016;51.668;6.874;2022-08-18T16:46:41;2.80;;;2.50;;
23678;SDS011;12016;51.668;6.874;2022-08-18T16:52:44;2.65;;;2.30;;
23678;SDS011;12016;51.668;6.874;2022-08-18T16:58:46;2.47;;;2.20;;
23678;SDS011;12016;51.668;6.874;2022-08-18T17:05:07;3.97;;;2.20;;
23678;SDS011;12016;51.668;6.874;2022-08-18T17:11:14;2.90;;;2.22;;
23678;SDS011;12016;51.668;6.874;2022-08-18T17:17:17;3.88;;;2.33;;
23678;SDS011;12016;51.668;6.874;2022-08-18T17:23:21;4.38;;;2.20;;
23678;SDS011;12016;51.668;6.874;2022-08-18T17:35:36;2.72;;;2.50;;
23678;SDS011;12016;51.668;6.874;2022-08-18T17:41:40;3.92;;;2.40;;
23678;SDS011;12016;51.668;6.874;2022-08-18T18:00:25;3.00;;;2.75;;
23678;SDS011;12016;51.668;6.874;2022-08-18T18:12:34;2.50;;;2.30;;
23678;SDS011;12016;51.668;6.874;2022-08-18T18:18:41;2.78;;;2.28;;
23678;SDS011;12016;51.668;6.874;2022-08-18T18:24:53;2.53;;;2.30;;
23678;SDS011;12016;51.668;6.874;2022-08-18T18:31:15;2.50;;;2.30;;
23678;SDS011;12016;51.668;6.874;2022-08-18T18:37:24;3.50;;;2.10;;
23678;SDS011;12016;51.668;6.874;2022-08-18T18:43:35;2.80;;;2.30;;
23678;SDS011;12016;51.668;6.874;2022-08-18T18:49:49;3.35;;;2.60;;
23678;SDS011;12016;51.668;6.874;2022-08-18T18:56:20;4.80;;;2.70;;
23678;SDS011;12016;51.668;6.874;2022-08-18T19:15:02;3.50;;;2.50;;
23678;SDS011;12016;51.668;6.874;2022-08-18T19:21:21;4.15;;;2.20;;
23678;SDS011;12016;51.668;6.874;2022-08-18T19:27:38;5.18;;;3.05;;
23678;SDS011;12016;51.668;6.874;2022-08-18T19:33:46;2.80;;;2.50;;
23678;SDS011;12016;51.668;6.874;2022-08-18T19:40:11;2.90;;;2.40;;
23678;SDS011;12016;51.668;6.874;2022-08-18T19:46:30;4.22;;;3.10;;
23678;SDS011;12016;51.668;6.874;2022-08-18T19:59:12;3.20;;;2.78;;
23678;SDS011;12016;51.668;6.874;2022-08-18T20:18:31;3.90;;;3.50;;
23678;SDS011;12016;51.668;6.874;2022-08-18T20:24:43;7.37;;;6.57;;
23678;SDS011;12016;51.668;6.874;2022-08-18T20:30:56;6.07;;;3.22;;
23678;SDS011;12016;51.668;6.874;2022-08-18T20:37:21;4.00;;;2.70;;
23678;SDS011;12016;51.668;6.874;2022-08-18T21:08:32;4.38;;;3.58;;
23678;SDS011;12016;51.668;6.874;2022-08-18T21:14:35;4.30;;;3.70;;
23678;SDS011;12016;51.668;6.874;2022-08-18T21:20:37;3.90;;;3.10;;
23678;SDS011;12016;51.668;6.874;2022-08-18T21:26:40;4.13;;;3.28;;
23678;SDS011;12016;51.668;6.874;2022-08-18T21:32:42;7.93;;;3.60;;
23678;SDS011;12016;51.668;6.874;2022-08-18T21:38:48;4.10;;;3.65;;
23678;SDS011;12016;51.668;6.874;2022-08-18T21:44:54;5.35;;;3.88;;
23678;SDS011;12016;51.668;6.874;2022-08-18T21:50:58;6.60;;;4.82;;
23678;SDS011;12016;51.668;6.874;2022-08-18T22:03:22;5.32;;;4.07;;
23678;SDS011;12016;51.668;6.874;2022-08-18T22:09:28;4.38;;;3.97;;
23678;SDS011;12016;51.668;6.874;2022-08-18T22:15:53;4.63;;;4.10;;
23678;SDS011;12016;51.668;6.874;2022-08-18T22:28:00;5.53;;;4.85;;
23678;SDS011;12016;51.668;6.874;2022-08-18T22:34:22;4.72;;;4.32;;
23678;SDS011;12016;51.668;6.874;2022-08-18T22:40:29;6.10;;;4.50;;
23678;SDS011;12016;51.668;6.874;2022-08-18T22:46:33;5.20;;;4.70;;
23678;SDS011;12016;51.668;6.874;2022-08-18T22:52:37;5.10;;;4.60;;
23678;SDS011;12016;51.668;6.874;2022-08-18T22:58:42;5.70;;;4.40;;
23678;SDS011;12016;51.668;6.874;2022-08-18T23:04:47;4.95;;;4.30;;
23678;SDS011;12016;51.668;6.874;2022-08-18T23:10:49;5.07;;;4.57;;
23678;SDS011;12016;51.668;6.874;2022-08-18T23:16:51;5.30;;;4.50;;
23678;SDS011;12016;51.668;6.874;2022-08-18T23:22:55;5.85;;;4.60;;
23678;SDS011;12016;51.668;6.874;2022-08-18T23:28:57;5.32;;;4.82;;
23678;SDS011;12016;51.668;6.874;2022-08-18T23:35:00;6.05;;;5.45;;
23678;SDS011;12016;51.668;6.874;2022-08-18T23:41:03;5.28;;;4.78;;
23678;SDS011;12016;51.668;6.874;2022-08-18T23:47:06;5.18;;;4.72;;
23678;SDS011;12016;51.668;6.874;2022-08-18T23:53:10;5.78;;;5.28;;
23678;SDS011;12016;51.668;6.874;2022-08-18T23:59:13;5.50;;;5.00;;
